sensor_id;sensor_type;location;lat;lon;timestamp;P1;durP1;ratioP1;P2;durP2;ratioP2
40533;SDS011;26233;51.894;10.192;2023-11-21T00:00:01;4.78;;;2.97;;
40533;SDS011;26233;51.894;10.192;2023-11-21T00:02:35;3.55;;;2.70;;
40533;SDS011;26233;51.894;10.192;2023-11-21T00:05:05;3.08;;;2.78;;
40533;SDS011;26233;51.894;10.192;2023-11-21T00:07:33;3.88;;;2.75;;
40533;SDS011;26233;51.894;10.192;2023-11-21T00:10:00;4.28;;;3.35;;
40533;SDS011;26233;51.894;10.192;2023-11-21T00:12:27;3.17;;;2.60;;
40533;SDS011;26233;51.894;10.192;2023-11-21T00:14:56;4.32;;;2.70;;
40533;SDS011;26233;51.894;10.192;2023-11-21T00:17:24;5.20;;;2.80;;
40533;SDS011;26233;51.894;10.192;2023-11-21T00:19:51;3.20;;;2.58;;
40533;SDS011;26233;51.894;10.192;2023-11-21T00:22:19;4.18;;;3.20;;
40533;SDS011;26233;51.894;10.192;2023-11-21T00:24:46;3.33;;;2.65;;
40533;SDS011;26233;51.894;10.192;2023-11-21T00:27:14;3.90;;;2.90;;
40533;SDS011;26233;51.894;10.192;2023-11-21T00:29:41;4.45;;;2.88;;
40533;SDS011;26233;51.894;10.192;2023-11-21T00:32:08;4.28;;;3.00;;
40533;SDS011;26233;51.894;10.192;2023-11-21T00:34:35;3.33;;;2.97;;
40533;SDS011;26233;51.894;10.192;2023-11-21T00:37:02;6.70;;;3.50;;
40533;SDS011;26233;51.894;10.192;2023-11-21T00:39:30;3.85;;;3.28;;
40533;SDS011;26233;51.894;10.192;2023-11-21T00:41:58;3.30;;;3.00;;
40533;SDS011;26233;51.894;10.192;2023-11-21T00:44:25;3.65;;;2.97;;
40533;SDS011;26233;51.894;10.192;2023-11-21T00:46:52;3.38;;;2.97;;
40533;SDS011;26233;51.894;10.192;2023-11-21T00:49:19;5.18;;;3.55;;
40533;SDS011;26233;51.894;10.192;2023-11-21T00:51:46;3.55;;;3.00;;
40533;SDS011;26233;51.894;10.192;2023-11-21T00:54:13;3.85;;;2.90;;
40533;SDS011;26233;51.894;10.192;2023-11-21T00:56:43;4.68;;;3.10;;
40533;SDS011;26233;51.894;10.192;2023-11-21T00:59:12;4.57;;;3.25;;
40533;SDS011;26233;51.894;10.192;2023-11-21T01:01:39;4.15;;;3.42;;
40533;SDS011;26233;51.894;10.192;2023-11-21T01:04:06;4.60;;;3.42;;
40533;SDS011;26233;51.894;10.192;2023-11-21T01:06:33;4.68;;;3.17;;
40533;SDS011;26233;51.894;10.192;2023-11-21T01:09:00;3.92;;;3.28;;
40533;SDS011;26233;51.894;10.192;2023-11-21T01:11:32;3.42;;;3.03;;
40533;SDS011;26233;51.894;10.192;2023-11-21T01:14:03;3.72;;;3.33;;
40533;SDS011;26233;51.894;10.192;2023-11-21T01:16:31;3.90;;;3.33;;
40533;SDS011;26233;51.894;10.192;2023-11-21T01:18:58;3.58;;;3.25;;
40533;SDS011;26233;51.894;10.192;2023-11-21T01:21:26;6.43;;;3.63;;
40533;SDS011;26233;51.894;10.192;2023-11-21T01:23:54;6.18;;;3.60;;
40533;SDS011;26233;51.894;10.192;2023-11-21T01:26:21;5.18;;;3.65;;
40533;SDS011;26233;51.894;10.192;2023-11-21T01:28:48;4.97;;;3.67;;
40533;SDS011;26233;51.894;10.192;2023-11-21T01:31:16;5.57;;;4.00;;
40533;SDS011;26233;51.894;10.192;2023-11-21T01:33:44;6.55;;;4.38;;
40533;SDS011;26233;51.894;10.192;2023-11-21T01:36:11;5.18;;;4.22;;
40533;SDS011;26233;51.894;10.192;2023-11-21T01:38:38;4.82;;;4.00;;
40533;SDS011;26233;51.894;10.192;2023-11-21T01:41:05;4.68;;;4.07;;
40533;SDS011;26233;51.894;10.192;2023-11-21T01:43:32;5.78;;;4.45;;
40533;SDS011;26233;51.894;10.192;2023-11-21T01:45:59;6.32;;;4.78;;
40533;SDS011;26233;51.894;10.192;2023-11-21T01:48:28;4.55;;;4.15;;
40533;SDS011;26233;51.894;10.192;2023-11-21T01:50:55;5.10;;;4.40;;
40533;SDS011;26233;51.894;10.192;2023-11-21T01:53:23;4.97;;;4.40;;
40533;SDS011;26233;51.894;10.192;2023-11-21T01:55:52;6.25;;;4.72;;
40533;SDS011;26233;51.894;10.192;2023-11-21T01:58:21;5.50;;;4.75;;
40533;SDS011;26233;51.894;10.192;2023-11-21T02:00:49;6.05;;;5.45;;
40533;SDS011;26233;51.894;10.192;2023-11-21T02:03:16;6.75;;;5.38;;
40533;SDS011;26233;51.894;10.192;2023-11-21T02:05:44;7.53;;;5.05;;
40533;SDS011;26233;51.894;10.192;2023-11-21T02:08:12;6.10;;;5.50;;
40533;SDS011;26233;51.894;10.192;2023-11-21T02:10:39;6.50;;;5.03;;
40533;SDS011;26233;51.894;10.192;2023-11-21T02:13:06;7.20;;;5.28;;
40533;SDS011;26233;51.894;10.192;2023-11-21T02:15:33;7.32;;;5.47;;
40533;SDS011;26233;51.894;10.192;2023-11-21T02:18:00;7.88;;;5.28;;
40533;SDS011;26233;51.894;10.192;2023-11-21T02:20:28;5.80;;;5.18;;
40533;SDS011;26233;51.894;10.192;2023-11-21T02:22:57;6.57;;;5.30;;
40533;SDS011;26233;51.894;10.192;2023-11-21T02:25:24;6.60;;;5.65;;
40533;SDS011;26233;51.894;10.192;2023-11-21T02:27:52;6.50;;;5.30;;
40533;SDS011;26233;51.894;10.192;2023-11-21T02:30:20;6.32;;;5.22;;
40533;SDS011;26233;51.894;10.192;2023-11-21T02:32:47;6.82;;;5.38;;
40533;SDS011;26233;51.894;10.192;2023-11-21T02:35:14;5.97;;;5.25;;
40533;SDS011;26233;51.894;10.192;2023-11-21T02:37:42;7.57;;;5.70;;
40533;SDS011;26233;51.894;10.192;2023-11-21T02:40:10;6.00;;;5.28;;
40533;SDS011;26233;51.894;10.192;2023-11-21T02:42:38;6.72;;;5.60;;
40533;SDS011;26233;51.894;10.192;2023-11-21T02:45:06;6.93;;;5.45;;
40533;SDS011;26233;51.894;10.192;2023-11-21T02:47:37;7.35;;;6.03;;
40533;SDS011;26233;51.894;10.192;2023-11-21T02:50:05;8.07;;;5.95;;
40533;SDS011;26233;51.894;10.192;2023-11-21T02:52:33;7.72;;;5.75;;
40533;SDS011;26233;51.894;10.192;2023-11-21T02:55:00;8.27;;;5.90;;
40533;SDS011;26233;51.894;10.192;2023-11-21T02:57:29;6.93;;;5.85;;
40533;SDS011;26233;51.894;10.192;2023-11-21T02:59:56;7.20;;;6.43;;
40533;SDS011;26233;51.894;10.192;2023-11-21T03:02:25;7.38;;;5.45;;
40533;SDS011;26233;51.894;10.192;2023-11-21T03:04:52;6.93;;;5.95;;
40533;SDS011;26233;51.894;10.192;2023-11-21T03:07:19;6.50;;;5.88;;
40533;SDS011;26233;51.894;10.192;2023-11-21T03:09:46;7.07;;;6.10;;
40533;SDS011;26233;51.894;10.192;2023-11-21T03:12:13;8.50;;;5.82;;
40533;SDS011;26233;51.894;10.192;2023-11-21T03:14:42;7.55;;;5.35;;
40533;SDS011;26233;51.894;10.192;2023-11-21T03:17:09;6.75;;;5.72;;
40533;SDS011;26233;51.894;10.192;2023-11-21T03:19:36;6.65;;;5.57;;
40533;SDS011;26233;51.894;10.192;2023-11-21T03:22:03;7.50;;;6.28;;
40533;SDS011;26233;51.894;10.192;2023-11-21T03:24:30;7.07;;;5.60;;
40533;SDS011;26233;51.894;10.192;2023-11-21T03:26:57;6.10;;;5.50;;
40533;SDS011;26233;51.894;10.192;2023-11-21T03:29:24;6.38;;;5.22;;
40533;SDS011;26233;51.894;10.192;2023-11-21T03:31:53;7.93;;;6.15;;
40533;SDS011;26233;51.894;10.192;2023-11-21T03:34:23;6.57;;;5.75;;
40533;SDS011;26233;51.894;10.192;2023-11-21T03:36:51;7.80;;;6.25;;
40533;SDS011;26233;51.894;10.192;2023-11-21T03:39:19;7.40;;;6.05;;
40533;SDS011;26233;51.894;10.192;2023-11-21T03:41:47;7.75;;;5.78;;
40533;SDS011;26233;51.894;10.192;2023-11-21T03:44:14;6.30;;;5.70;;
40533;SDS011;26233;51.894;10.192;2023-11-21T03:46:41;7.28;;;6.50;;
40533;SDS011;26233;51.894;10.192;2023-11-21T03:49:10;7.53;;;6.72;;
40533;SDS011;26233;51.894;10.192;2023-11-21T03:51:37;6.30;;;5.63;;
40533;SDS011;26233;51.894;10.192;2023-11-21T03:54:04;7.88;;;5.95;;
40533;SDS011;26233;51.894;10.192;2023-11-21T03:56:32;7.03;;;6.05;;
40533;SDS011;26233;51.894;10.192;2023-11-21T03:58:59;8.63;;;6.18;;
40533;SDS011;26233;51.894;10.192;2023-11-21T04:01:25;7.00;;;6.15;;
40533;SDS011;26233;51.894;10.192;2023-11-21T04:03:52;6.50;;;5.78;;
40533;SDS011;26233;51.894;10.192;2023-11-21T04:06:21;7.50;;;6.05;;
40533;SDS011;26233;51.894;10.192;2023-11-21T04:08:48;6.88;;;5.97;;
40533;SDS011;26233;51.894;10.192;2023-11-21T04:11:15;6.72;;;6.10;;
40533;SDS011;26233;51.894;10.192;2023-11-21T04:13:42;8.55;;;6.38;;
40533;SDS011;26233;51.894;10.192;2023-11-21T04:16:09;8.68;;;7.05;;
40533;SDS011;26233;51.894;10.192;2023-11-21T04:18:36;7.47;;;6.78;;
40533;SDS011;26233;51.894;10.192;2023-11-21T04:21:04;8.10;;;7.05;;
40533;SDS011;26233;51.894;10.192;2023-11-21T04:23:34;7.43;;;6.53;;
40533;SDS011;26233;51.894;10.192;2023-11-21T04:26:02;7.63;;;6.72;;
40533;SDS011;26233;51.894;10.192;2023-11-21T04:28:29;9.55;;;7.22;;
40533;SDS011;26233;51.894;10.192;2023-11-21T04:30:56;7.68;;;6.57;;
40533;SDS011;26233;51.894;10.192;2023-11-21T04:33:23;9.07;;;6.70;;
40533;SDS011;26233;51.894;10.192;2023-11-21T04:35:50;8.95;;;6.68;;
40533;SDS011;26233;51.894;10.192;2023-11-21T04:38:17;8.20;;;7.03;;
40533;SDS011;26233;51.894;10.192;2023-11-21T04:40:46;8.25;;;6.90;;
40533;SDS011;26233;51.894;10.192;2023-11-21T04:43:13;8.68;;;7.25;;
40533;SDS011;26233;51.894;10.192;2023-11-21T04:45:40;9.00;;;7.63;;
40533;SDS011;26233;51.894;10.192;2023-11-21T04:48:07;9.52;;;7.80;;
40533;SDS011;26233;51.894;10.192;2023-11-21T04:50:35;9.70;;;7.55;;
40533;SDS011;26233;51.894;10.192;2023-11-21T04:53:02;8.32;;;7.45;;
40533;SDS011;26233;51.894;10.192;2023-11-21T04:55:29;9.25;;;7.40;;
40533;SDS011;26233;51.894;10.192;2023-11-21T04:57:57;8.65;;;7.38;;
40533;SDS011;26233;51.894;10.192;2023-11-21T05:00:24;9.98;;;7.63;;
40533;SDS011;26233;51.894;10.192;2023-11-21T05:02:51;11.30;;;7.88;;
40533;SDS011;26233;51.894;10.192;2023-11-21T05:05:18;12.65;;;8.25;;
40533;SDS011;26233;51.894;10.192;2023-11-21T05:07:45;9.90;;;7.70;;
40533;SDS011;26233;51.894;10.192;2023-11-21T05:10:14;9.00;;;7.47;;
40533;SDS011;26233;51.894;10.192;2023-11-21T05:12:41;7.68;;;6.82;;
40533;SDS011;26233;51.894;10.192;2023-11-21T05:15:10;9.55;;;7.30;;
40533;SDS011;26233;51.894;10.192;2023-11-21T05:17:41;9.35;;;7.97;;
40533;SDS011;26233;51.894;10.192;2023-11-21T05:20:09;8.38;;;7.03;;
40533;SDS011;26233;51.894;10.192;2023-11-21T05:22:39;9.63;;;7.60;;
40533;SDS011;26233;51.894;10.192;2023-11-21T05:25:07;8.00;;;6.88;;
40533;SDS011;26233;51.894;10.192;2023-11-21T05:27:36;9.13;;;7.75;;
40533;SDS011;26233;51.894;10.192;2023-11-21T05:30:03;8.20;;;7.35;;
40533;SDS011;26233;51.894;10.192;2023-11-21T05:32:35;10.25;;;7.57;;
40533;SDS011;26233;51.894;10.192;2023-11-21T05:35:03;8.32;;;6.90;;
40533;SDS011;26233;51.894;10.192;2023-11-21T05:37:34;10.52;;;6.85;;
40533;SDS011;26233;51.894;10.192;2023-11-21T05:40:04;8.55;;;6.65;;
40533;SDS011;26233;51.894;10.192;2023-11-21T05:42:33;8.85;;;7.72;;
40533;SDS011;26233;51.894;10.192;2023-11-21T05:45:01;9.20;;;7.10;;
40533;SDS011;26233;51.894;10.192;2023-11-21T05:47:36;7.72;;;6.88;;
40533;SDS011;26233;51.894;10.192;2023-11-21T05:50:05;8.60;;;7.03;;
40533;SDS011;26233;51.894;10.192;2023-11-21T05:52:37;9.38;;;7.18;;
40533;SDS011;26233;51.894;10.192;2023-11-21T05:55:05;8.88;;;6.68;;
40533;SDS011;26233;51.894;10.192;2023-11-21T05:57:33;11.10;;;7.18;;
40533;SDS011;26233;51.894;10.192;2023-11-21T06:00:01;10.15;;;7.75;;
40533;SDS011;26233;51.894;10.192;2023-11-21T06:02:37;8.45;;;6.75;;
40533;SDS011;26233;51.894;10.192;2023-11-21T06:05:05;7.72;;;6.97;;
40533;SDS011;26233;51.894;10.192;2023-11-21T06:07:33;9.27;;;7.53;;
40533;SDS011;26233;51.894;10.192;2023-11-21T06:10:00;10.45;;;7.93;;
40533;SDS011;26233;51.894;10.192;2023-11-21T06:12:31;11.15;;;7.78;;
40533;SDS011;26233;51.894;10.192;2023-11-21T06:15:00;10.23;;;7.72;;
40533;SDS011;26233;51.894;10.192;2023-11-21T06:17:30;9.65;;;8.60;;
40533;SDS011;26233;51.894;10.192;2023-11-21T06:19:58;10.15;;;8.20;;
40533;SDS011;26233;51.894;10.192;2023-11-21T06:22:25;11.45;;;8.63;;
40533;SDS011;26233;51.894;10.192;2023-11-21T06:24:53;10.38;;;8.35;;
40533;SDS011;26233;51.894;10.192;2023-11-21T06:27:20;10.20;;;8.43;;
40533;SDS011;26233;51.894;10.192;2023-11-21T06:29:47;10.43;;;8.25;;
40533;SDS011;26233;51.894;10.192;2023-11-21T06:32:14;9.63;;;8.00;;
40533;SDS011;26233;51.894;10.192;2023-11-21T06:34:41;9.32;;;8.35;;
40533;SDS011;26233;51.894;10.192;2023-11-21T06:37:10;11.02;;;8.73;;
40533;SDS011;26233;51.894;10.192;2023-11-21T06:39:37;11.02;;;8.82;;
40533;SDS011;26233;51.894;10.192;2023-11-21T06:42:04;10.20;;;8.05;;
40533;SDS011;26233;51.894;10.192;2023-11-21T06:44:32;9.93;;;8.55;;
40533;SDS011;26233;51.894;10.192;2023-11-21T06:47:00;10.65;;;8.27;;
40533;SDS011;26233;51.894;10.192;2023-11-21T06:49:28;9.85;;;8.45;;
40533;SDS011;26233;51.894;10.192;2023-11-21T06:51:56;9.95;;;8.25;;
40533;SDS011;26233;51.894;10.192;2023-11-21T06:54:26;10.82;;;8.68;;
40533;SDS011;26233;51.894;10.192;2023-11-21T06:56:54;9.43;;;8.27;;
40533;SDS011;26233;51.894;10.192;2023-11-21T06:59:21;12.70;;;8.55;;
40533;SDS011;26233;51.894;10.192;2023-11-21T07:01:48;10.82;;;8.38;;
40533;SDS011;26233;51.894;10.192;2023-11-21T07:04:15;8.55;;;7.70;;
40533;SDS011;26233;51.894;10.192;2023-11-21T07:06:43;11.55;;;8.07;;
40533;SDS011;26233;51.894;10.192;2023-11-21T07:09:10;10.52;;;7.68;;
40533;SDS011;26233;51.894;10.192;2023-11-21T07:11:39;11.75;;;7.85;;
40533;SDS011;26233;51.894;10.192;2023-11-21T07:14:06;11.32;;;8.77;;
40533;SDS011;26233;51.894;10.192;2023-11-21T07:16:34;11.00;;;8.30;;
40533;SDS011;26233;51.894;10.192;2023-11-21T07:19:02;10.32;;;8.07;;
40533;SDS011;26233;51.894;10.192;2023-11-21T07:21:31;12.40;;;8.77;;
40533;SDS011;26233;51.894;10.192;2023-11-21T07:23:59;12.32;;;8.85;;
40533;SDS011;26233;51.894;10.192;2023-11-21T07:26:27;11.50;;;8.82;;
40533;SDS011;26233;51.894;10.192;2023-11-21T07:28:55;10.82;;;8.45;;
40533;SDS011;26233;51.894;10.192;2023-11-21T07:31:22;11.43;;;8.32;;
40533;SDS011;26233;51.894;10.192;2023-11-21T07:33:50;12.45;;;8.40;;
40533;SDS011;26233;51.894;10.192;2023-11-21T07:36:18;9.70;;;7.93;;
40533;SDS011;26233;51.894;10.192;2023-11-21T07:38:46;10.80;;;8.05;;
40533;SDS011;26233;51.894;10.192;2023-11-21T07:41:13;11.13;;;8.90;;
40533;SDS011;26233;51.894;10.192;2023-11-21T07:43:41;9.52;;;8.50;;
40533;SDS011;26233;51.894;10.192;2023-11-21T07:46:09;11.77;;;9.07;;
40533;SDS011;26233;51.894;10.192;2023-11-21T07:48:37;11.88;;;9.05;;
40533;SDS011;26233;51.894;10.192;2023-11-21T07:51:05;12.07;;;8.88;;
40533;SDS011;26233;51.894;10.192;2023-11-21T07:53:33;11.25;;;8.68;;
40533;SDS011;26233;51.894;10.192;2023-11-21T07:56:02;9.40;;;8.32;;
40533;SDS011;26233;51.894;10.192;2023-11-21T07:58:31;11.88;;;8.65;;
40533;SDS011;26233;51.894;10.192;2023-11-21T08:00:58;8.80;;;7.90;;
40533;SDS011;26233;51.894;10.192;2023-11-21T08:03:27;8.48;;;7.38;;
40533;SDS011;26233;51.894;10.192;2023-11-21T08:05:55;10.18;;;8.07;;
40533;SDS011;26233;51.894;10.192;2023-11-21T08:08:22;8.05;;;7.25;;
40533;SDS011;26233;51.894;10.192;2023-11-21T08:10:49;8.90;;;7.07;;
40533;SDS011;26233;51.894;10.192;2023-11-21T08:13:21;8.35;;;7.20;;
40533;SDS011;26233;51.894;10.192;2023-11-21T08:15:48;7.13;;;6.43;;
40533;SDS011;26233;51.894;10.192;2023-11-21T08:18:16;8.23;;;7.18;;
40533;SDS011;26233;51.894;10.192;2023-11-21T08:20:44;7.88;;;6.68;;
40533;SDS011;26233;51.894;10.192;2023-11-21T08:23:13;6.18;;;5.55;;
40533;SDS011;26233;51.894;10.192;2023-11-21T08:25:42;6.88;;;6.28;;
40533;SDS011;26233;51.894;10.192;2023-11-21T08:28:09;6.60;;;5.80;;
40533;SDS011;26233;51.894;10.192;2023-11-21T08:30:37;6.80;;;6.15;;
40533;SDS011;26233;51.894;10.192;2023-11-21T08:33:04;6.85;;;6.03;;
40533;SDS011;26233;51.894;10.192;2023-11-21T08:35:32;7.15;;;6.35;;
40533;SDS011;26233;51.894;10.192;2023-11-21T08:38:00;6.30;;;5.50;;
40533;SDS011;26233;51.894;10.192;2023-11-21T08:40:27;6.07;;;5.47;;
40533;SDS011;26233;51.894;10.192;2023-11-21T08:42:54;6.25;;;5.65;;
40533;SDS011;26233;51.894;10.192;2023-11-21T08:45:23;6.10;;;5.50;;
40533;SDS011;26233;51.894;10.192;2023-11-21T08:47:51;5.97;;;5.45;;
40533;SDS011;26233;51.894;10.192;2023-11-21T08:50:18;6.07;;;5.45;;
40533;SDS011;26233;51.894;10.192;2023-11-21T08:52:45;5.80;;;5.15;;
40533;SDS011;26233;51.894;10.192;2023-11-21T08:55:16;5.70;;;5.20;;
40533;SDS011;26233;51.894;10.192;2023-11-21T08:57:45;5.55;;;5.05;;
40533;SDS011;26233;51.894;10.192;2023-11-21T09:00:12;5.60;;;5.03;;
40533;SDS011;26233;51.894;10.192;2023-11-21T09:02:42;5.55;;;5.05;;
40533;SDS011;26233;51.894;10.192;2023-11-21T09:05:10;5.03;;;4.53;;
40533;SDS011;26233;51.894;10.192;2023-11-21T09:07:38;4.20;;;3.90;;
40533;SDS011;26233;51.894;10.192;2023-11-21T09:10:07;4.80;;;4.32;;
40533;SDS011;26233;51.894;10.192;2023-11-21T09:12:36;4.10;;;3.72;;
40533;SDS011;26233;51.894;10.192;2023-11-21T09:15:04;3.88;;;3.53;;
40533;SDS011;26233;51.894;10.192;2023-11-21T09:17:34;3.22;;;2.92;;
40533;SDS011;26233;51.894;10.192;2023-11-21T09:20:02;3.22;;;2.92;;
40533;SDS011;26233;51.894;10.192;2023-11-21T09:22:30;2.35;;;2.15;;
40533;SDS011;26233;51.894;10.192;2023-11-21T09:24:57;1.70;;;1.60;;
40533;SDS011;26233;51.894;10.192;2023-11-21T09:27:25;1.50;;;1.40;;
40533;SDS011;26233;51.894;10.192;2023-11-21T09:29:53;1.30;;;1.08;;
40533;SDS011;26233;51.894;10.192;2023-11-21T09:32:20;1.20;;;1.10;;
40533;SDS011;26233;51.894;10.192;2023-11-21T09:34:47;0.70;;;0.70;;
40533;SDS011;26233;51.894;10.192;2023-11-21T09:37:15;0.80;;;0.80;;
40533;SDS011;26233;51.894;10.192;2023-11-21T09:39:42;0.70;;;0.70;;
40533;SDS011;26233;51.894;10.192;2023-11-21T09:42:10;0.60;;;0.60;;
40533;SDS011;26233;51.894;10.192;2023-11-21T09:44:44;0.60;;;0.60;;
40533;SDS011;26233;51.894;10.192;2023-11-21T09:47:18;0.52;;;0.52;;
40533;SDS011;26233;51.894;10.192;2023-11-21T09:49:47;0.60;;;0.60;;
40533;SDS011;26233;51.894;10.192;2023-11-21T09:52:22;0.40;;;0.40;;
40533;SDS011;26233;51.894;10.192;2023-11-21T09:54:52;0.57;;;0.57;;
40533;SDS011;26233;51.894;10.192;2023-11-21T09:57:22;1.80;;;0.80;;
40533;SDS011;26233;51.894;10.192;2023-11-21T09:59:51;0.82;;;0.65;;
40533;SDS011;26233;51.894;10.192;2023-11-21T10:02:23;0.80;;;0.80;;
40533;SDS011;26233;51.894;10.192;2023-11-21T10:04:53;1.17;;;1.08;;
40533;SDS011;26233;51.894;10.192;2023-11-21T10:07:21;1.30;;;1.17;;
40533;SDS011;26233;51.894;10.192;2023-11-21T10:09:49;1.70;;;1.42;;
40533;SDS011;26233;51.894;10.192;2023-11-21T10:12:18;2.22;;;2.03;;
40533;SDS011;26233;51.894;10.192;2023-11-21T10:14:47;2.58;;;2.38;;
40533;SDS011;26233;51.894;10.192;2023-11-21T10:17:18;2.67;;;2.47;;
40533;SDS011;26233;51.894;10.192;2023-11-21T10:19:47;2.55;;;2.35;;
40533;SDS011;26233;51.894;10.192;2023-11-21T10:22:15;2.78;;;2.58;;
40533;SDS011;26233;51.894;10.192;2023-11-21T10:24:42;3.38;;;2.92;;
40533;SDS011;26233;51.894;10.192;2023-11-21T10:27:09;3.35;;;3.05;;
40533;SDS011;26233;51.894;10.192;2023-11-21T10:29:38;3.05;;;2.75;;
40533;SDS011;26233;51.894;10.192;2023-11-21T10:32:07;3.50;;;3.20;;
40533;SDS011;26233;51.894;10.192;2023-11-21T10:34:34;3.40;;;3.10;;
40533;SDS011;26233;51.894;10.192;2023-11-21T10:37:11;3.43;;;3.13;;
40533;SDS011;26233;51.894;10.192;2023-11-21T10:39:40;3.40;;;3.10;;
40533;SDS011;26233;51.894;10.192;2023-11-21T10:42:09;3.70;;;3.40;;
40533;SDS011;26233;51.894;10.192;2023-11-21T10:44:36;3.67;;;3.37;;
40533;SDS011;26233;51.894;10.192;2023-11-21T10:47:03;3.45;;;3.15;;
40533;SDS011;26233;51.894;10.192;2023-11-21T10:49:31;3.33;;;3.03;;
40533;SDS011;26233;51.894;10.192;2023-11-21T10:51:59;3.67;;;3.37;;
40533;SDS011;26233;51.894;10.192;2023-11-21T10:54:27;3.53;;;3.23;;
40533;SDS011;26233;51.894;10.192;2023-11-21T10:56:56;3.70;;;3.40;;
40533;SDS011;26233;51.894;10.192;2023-11-21T10:59:25;3.97;;;3.60;;
40533;SDS011;26233;51.894;10.192;2023-11-21T11:01:57;3.50;;;3.20;;
40533;SDS011;26233;51.894;10.192;2023-11-21T11:04:27;3.80;;;3.50;;
40533;SDS011;26233;51.894;10.192;2023-11-21T11:06:54;3.92;;;3.53;;
40533;SDS011;26233;51.894;10.192;2023-11-21T11:09:24;3.75;;;3.45;;
40533;SDS011;26233;51.894;10.192;2023-11-21T11:11:53;4.25;;;3.50;;
40533;SDS011;26233;51.894;10.192;2023-11-21T11:14:21;3.80;;;3.50;;
40533;SDS011;26233;51.894;10.192;2023-11-21T11:16:52;4.13;;;3.73;;
40533;SDS011;26233;51.894;10.192;2023-11-21T11:19:21;5.07;;;3.93;;
40533;SDS011;26233;51.894;10.192;2023-11-21T11:21:50;4.70;;;4.30;;
40533;SDS011;26233;51.894;10.192;2023-11-21T11:24:40;4.17;;;3.87;;
40533;SDS011;26233;51.894;10.192;2023-11-21T11:27:25;4.73;;;4.33;;
40533;SDS011;26233;51.894;10.192;2023-11-21T11:30:04;5.10;;;4.70;;
40533;SDS011;26233;51.894;10.192;2023-11-21T11:32:43;4.40;;;4.10;;
40533;SDS011;26233;51.894;10.192;2023-11-21T11:35:23;5.60;;;5.05;;
40533;SDS011;26233;51.894;10.192;2023-11-21T11:37:59;5.03;;;4.63;;
40533;SDS011;26233;51.894;10.192;2023-11-21T11:40:39;4.80;;;4.30;;
40533;SDS011;26233;51.894;10.192;2023-11-21T11:43:07;5.37;;;4.87;;
40533;SDS011;26233;51.894;10.192;2023-11-21T11:45:35;5.37;;;4.87;;
40533;SDS011;26233;51.894;10.192;2023-11-21T11:48:06;5.33;;;4.83;;
40533;SDS011;26233;51.894;10.192;2023-11-21T11:50:33;5.57;;;5.07;;
40533;SDS011;26233;51.894;10.192;2023-11-21T11:53:12;4.75;;;4.35;;
40533;SDS011;26233;51.894;10.192;2023-11-21T11:55:42;4.95;;;4.55;;
40533;SDS011;26233;51.894;10.192;2023-11-21T11:58:09;5.30;;;4.80;;
40533;SDS011;26233;51.894;10.192;2023-11-21T12:00:37;4.93;;;4.50;;
40533;SDS011;26233;51.894;10.192;2023-11-21T12:03:05;5.17;;;4.67;;
40533;SDS011;26233;51.894;10.192;2023-11-21T12:05:34;4.93;;;4.43;;
40533;SDS011;26233;51.894;10.192;2023-11-21T12:08:04;5.10;;;4.67;;
40533;SDS011;26233;51.894;10.192;2023-11-21T12:10:33;4.83;;;4.43;;
40533;SDS011;26233;51.894;10.192;2023-11-21T12:13:03;4.70;;;4.30;;
40533;SDS011;26233;51.894;10.192;2023-11-21T12:15:33;5.40;;;4.90;;
40533;SDS011;26233;51.894;10.192;2023-11-21T12:18:01;4.97;;;4.50;;
40533;SDS011;26233;51.894;10.192;2023-11-21T12:20:29;5.77;;;5.27;;
40533;SDS011;26233;51.894;10.192;2023-11-21T12:22:58;5.47;;;4.97;;
40533;SDS011;26233;51.894;10.192;2023-11-21T12:25:26;5.10;;;4.70;;
40533;SDS011;26233;51.894;10.192;2023-11-21T12:27:57;5.57;;;5.03;;
40533;SDS011;26233;51.894;10.192;2023-11-21T12:30:27;5.43;;;4.93;;
40533;SDS011;26233;51.894;10.192;2023-11-21T12:32:57;5.63;;;5.13;;
40533;SDS011;26233;51.894;10.192;2023-11-21T12:35:25;5.40;;;4.93;;
40533;SDS011;26233;51.894;10.192;2023-11-21T12:37:54;5.20;;;4.80;;
40533;SDS011;26233;51.894;10.192;2023-11-21T12:40:22;5.00;;;4.53;;
40533;SDS011;26233;51.894;10.192;2023-11-21T12:42:51;5.88;;;5.32;;
40533;SDS011;26233;51.894;10.192;2023-11-21T12:45:20;4.95;;;4.55;;
40533;SDS011;26233;51.894;10.192;2023-11-21T12:47:52;4.90;;;4.50;;
40533;SDS011;26233;51.894;10.192;2023-11-21T12:50:25;5.57;;;4.90;;
40533;SDS011;26233;51.894;10.192;2023-11-21T12:52:58;5.18;;;4.68;;
40533;SDS011;26233;51.894;10.192;2023-11-21T12:55:29;4.97;;;4.47;;
40533;SDS011;26233;51.894;10.192;2023-11-21T12:57:57;5.47;;;4.97;;
40533;SDS011;26233;51.894;10.192;2023-11-21T13:00:31;5.13;;;4.73;;
40533;SDS011;26233;51.894;10.192;2023-11-21T13:03:04;5.10;;;4.67;;
40533;SDS011;26233;51.894;10.192;2023-11-21T13:05:33;4.85;;;4.45;;
40533;SDS011;26233;51.894;10.192;2023-11-21T13:08:04;5.00;;;4.43;;
40533;SDS011;26233;51.894;10.192;2023-11-21T13:10:35;5.20;;;4.80;;
40533;SDS011;26233;51.894;10.192;2023-11-21T13:13:04;4.70;;;4.30;;
40533;SDS011;26233;51.894;10.192;2023-11-21T13:15:34;4.60;;;4.20;;
40533;SDS011;26233;51.894;10.192;2023-11-21T13:18:07;4.95;;;4.50;;
40533;SDS011;26233;51.894;10.192;2023-11-21T13:20:36;5.37;;;4.87;;
40533;SDS011;26233;51.894;10.192;2023-11-21T13:23:07;5.95;;;5.43;;
40533;SDS011;26233;51.894;10.192;2023-11-21T13:25:37;5.10;;;4.70;;
40533;SDS011;26233;51.894;10.192;2023-11-21T13:28:06;5.80;;;5.30;;
40533;SDS011;26233;51.894;10.192;2023-11-21T13:30:35;5.07;;;4.67;;
40533;SDS011;26233;51.894;10.192;2023-11-21T13:33:02;5.93;;;5.37;;
40533;SDS011;26233;51.894;10.192;2023-11-21T13:35:33;4.95;;;4.55;;
40533;SDS011;26233;51.894;10.192;2023-11-21T13:38:07;4.80;;;4.40;;
40533;SDS011;26233;51.894;10.192;2023-11-21T13:40:35;5.03;;;4.53;;
40533;SDS011;26233;51.894;10.192;2023-11-21T13:43:08;5.40;;;5.00;;
40533;SDS011;26233;51.894;10.192;2023-11-21T13:45:35;5.13;;;4.63;;
40533;SDS011;26233;51.894;10.192;2023-11-21T13:48:04;4.83;;;4.43;;
40533;SDS011;26233;51.894;10.192;2023-11-21T13:50:36;4.87;;;4.47;;
40533;SDS011;26233;51.894;10.192;2023-11-21T13:53:04;5.00;;;4.57;;
40533;SDS011;26233;51.894;10.192;2023-11-21T13:55:41;4.93;;;4.53;;
40533;SDS011;26233;51.894;10.192;2023-11-21T13:58:08;4.70;;;4.30;;
40533;SDS011;26233;51.894;10.192;2023-11-21T14:00:39;4.67;;;4.27;;
40533;SDS011;26233;51.894;10.192;2023-11-21T14:03:10;4.60;;;4.10;;
40533;SDS011;26233;51.894;10.192;2023-11-21T14:05:45;5.13;;;4.63;;
40533;SDS011;26233;51.894;10.192;2023-11-21T14:08:16;4.63;;;4.23;;
40533;SDS011;26233;51.894;10.192;2023-11-21T14:10:46;5.07;;;4.57;;
40533;SDS011;26233;51.894;10.192;2023-11-21T14:13:16;4.50;;;4.10;;
40533;SDS011;26233;51.894;10.192;2023-11-21T14:15:45;4.47;;;4.10;;
40533;SDS011;26233;51.894;10.192;2023-11-21T14:18:16;4.33;;;3.93;;
40533;SDS011;26233;51.894;10.192;2023-11-21T14:20:52;4.23;;;3.83;;
40533;SDS011;26233;51.894;10.192;2023-11-21T14:23:19;4.37;;;4.07;;
40533;SDS011;26233;51.894;10.192;2023-11-21T14:25:48;4.20;;;3.90;;
40533;SDS011;26233;51.894;10.192;2023-11-21T14:28:16;4.47;;;4.07;;
40533;SDS011;26233;51.894;10.192;2023-11-21T14:30:44;4.03;;;3.73;;
40533;SDS011;26233;51.894;10.192;2023-11-21T14:33:11;4.00;;;3.60;;
40533;SDS011;26233;51.894;10.192;2023-11-21T14:35:38;4.50;;;4.10;;
40533;SDS011;26233;51.894;10.192;2023-11-21T14:38:07;4.27;;;3.87;;
40533;SDS011;26233;51.894;10.192;2023-11-21T14:40:35;4.00;;;3.70;;